Time;durP1;ratioP1;P1;durP2;ratioP2;P2;SDS_P1;SDS_P2;PMS_P1;PMS_P2;Temp;Humidity;BMP_temperature;BMP_pressure;BME280_temperature;BME280_humidity;BME280_pressure;Samples;Min_cycle;Max_cycle;Signal;HPM_P1;HPM_P2
2023/01/15 00:00:12;;;;;;;0.30;0.30;;;;;;;9.04;94.88;94346.38;4931671;29;20206;-80
2023/01/15 00:02:37;;;;;;;0.57;0.57;;;;;;;8.94;96.02;94343.19;4924553;29;20574;-80
2023/01/15 00:05:03;;;;;;;0.57;0.43;;;;;;;8.90;96.12;94341.88;4943789;29;20197;-80
2023/01/15 00:07:29;;;;;;;0.50;0.50;;;;;;;9.01;94.94;94332.00;4931485;29;20284;-80
2023/01/15 00:09:55;;;;;;;1.37;0.40;;;;;;;8.98;94.68;94334.91;4915281;29;20205;-80
2023/01/15 00:12:21;;;;;;;0.60;0.60;;;;;;;8.91;95.76;94330.56;4916742;29;20186;-80
2023/01/15 00:14:46;;;;;;;0.40;0.30;;;;;;;8.88;95.36;94339.47;4931076;29;20539;-80
2023/01/15 00:17:11;;;;;;;0.40;0.30;;;;;;;8.89;95.04;94329.91;4946686;29;20158;-81
2023/01/15 00:19:37;;;;;;;0.40;0.30;;;;;;;9.09;94.32;94331.13;4948475;28;20222;-81
2023/01/15 00:22:02;;;;;;;0.40;0.40;;;;;;;9.02;94.03;94337.97;4950659;28;20182;-82
2023/01/15 00:29:55;;;;;;;0.40;0.40;;;;;;;9.05;93.90;94309.16;4946310;29;20224;-81
2023/01/15 00:32:20;;;;;;;0.20;0.20;;;;;;;8.99;93.16;94295.09;4923466;29;20214;-81
2023/01/15 00:34:46;;;;;;;0.40;0.40;;;;;;;9.01;93.84;94302.69;4929715;29;20190;-81
2023/01/15 00:37:11;;;;;;;0.50;0.50;;;;;;;9.01;93.72;94298.34;4929217;29;20197;-80
2023/01/15 00:39:36;;;;;;;0.50;0.50;;;;;;;9.13;93.15;94297.97;4932907;29;20217;-81
2023/01/15 00:42:02;;;;;;;0.27;0.27;;;;;;;9.03;92.85;94298.16;4952456;29;20188;-81
2023/01/15 00:44:27;;;;;;;0.47;0.47;;;;;;;9.17;92.79;94281.91;4928864;29;20238;-81
2023/01/15 00:46:52;;;;;;;0.60;0.30;;;;;;;9.09;93.60;94269.78;4924461;29;20186;-80
2023/01/15 00:49:18;;;;;;;1.30;0.30;;;;;;;9.17;92.74;94283.69;4923186;29;20218;-80
2023/01/15 00:51:43;;;;;;;0.30;0.30;;;;;;;9.21;93.15;94272.81;4929235;29;20187;-80
2023/01/15 00:54:09;;;;;;;0.30;0.30;;;;;;;9.15;93.55;94267.50;4935503;29;20638;-80
2023/01/15 00:56:35;;;;;;;0.33;0.33;;;;;;;9.03;93.44;94267.09;4945120;29;20189;-80
2023/01/15 00:59:02;;;;;;;0.50;0.30;;;;;;;9.18;92.79;94262.78;4919461;29;20702;-81
2023/01/15 01:01:27;;;;;;;0.40;0.40;;;;;;;9.19;92.61;94268.78;4929076;29;20322;-81
2023/01/15 01:03:52;;;;;;;0.27;0.27;;;;;;;9.06;93.10;94254.59;4942704;29;20265;-81
2023/01/15 01:06:19;;;;;;;0.27;0.27;;;;;;;9.32;91.18;94258.66;4919031;29;20203;-80
2023/01/15 01:08:47;;;;;;;0.40;0.40;;;;;;;9.19;91.00;94263.59;4929841;29;20230;-80
2023/01/15 01:11:15;;;;;;;0.30;0.30;;;;;;;9.22;90.66;94250.31;4934846;29;20229;-80
2023/01/15 01:13:42;;;;;;;0.40;0.40;;;;;;;9.35;90.56;94251.34;4918788;29;20252;-80
2023/01/15 01:16:29;;;;;;;0.33;0.30;;;;;;;9.30;89.98;94261.44;4920145;29;20187;-80
2023/01/15 01:18:55;;;;;;;1.60;0.43;;;;;;;9.27;90.74;94250.59;4933757;29;20237;-80
2023/01/15 01:21:20;;;;;;;0.40;0.30;;;;;;;9.34;90.48;94267.88;4938904;29;20201;-81
2023/01/15 01:23:46;;;;;;;0.30;0.30;;;;;;;9.33;90.47;94261.09;4918480;29;20214;-81
2023/01/15 01:26:12;;;;;;;0.70;0.30;;;;;;;9.46;90.05;94255.34;4921216;29;20690;-81
2023/01/15 01:28:38;;;;;;;0.30;0.30;;;;;;;9.48;89.95;94252.59;4925269;29;20284;-80
2023/01/15 01:31:04;;;;;;;0.50;0.50;;;;;;;9.34;91.23;94260.09;4921184;29;20834;-80
2023/01/15 01:33:30;;;;;;;0.30;0.30;;;;;;;9.40;91.50;94242.28;4934628;29;20515;-80
2023/01/15 01:35:55;;;;;;;0.57;0.40;;;;;;;9.36;92.05;94244.38;4928131;29;20198;-82
2023/01/15 01:38:20;;;;;;;0.60;0.30;;;;;;;9.18;93.43;94236.88;4939341;29;20198;-82
2023/01/15 01:40:45;;;;;;;0.37;0.37;;;;;;;9.33;92.99;94245.53;4932992;29;20332;-81
2023/01/15 01:43:24;;;;;;;0.30;0.30;;;;;;;9.42;92.75;94241.13;4937748;29;20576;-81
2023/01/15 01:45:49;;;;;;;0.30;0.30;;;;;;;9.28;93.20;94228.91;4933382;29;20686;-81
2023/01/15 01:48:17;;;;;;;0.50;0.50;;;;;;;9.29;93.08;94236.50;4949400;29;20186;-81
2023/01/15 01:50:44;;;;;;;0.40;0.40;;;;;;;9.38;92.58;94229.50;4919425;29;20642;-81
2023/01/15 01:53:13;;;;;;;0.30;0.30;;;;;;;9.29;93.38;94231.34;4934208;29;20190;-81
2023/01/15 01:55:39;;;;;;;0.30;0.30;;;;;;;9.49;92.53;94218.72;4937679;29;20248;-81
2023/01/15 01:58:06;;;;;;;0.40;0.30;;;;;;;9.34;93.61;94223.84;4918185;29;20718;-81
2023/01/15 02:00:34;;;;;;;0.30;0.30;;;;;;;9.30;94.09;94216.59;4923282;29;20232;-81
2023/01/15 02:02:59;;;;;;;0.30;0.30;;;;;;;9.25;94.71;94217.09;4933302;29;20229;-82
2023/01/15 02:05:31;;;;;;;0.37;0.20;;;;;;;9.32;93.91;94215.44;4922305;29;20280;-82
2023/01/15 02:07:57;;;;;;;0.20;0.20;;;;;;;9.39;94.18;94217.34;4943973;29;20182;-81
2023/01/15 02:10:22;;;;;;;0.27;0.27;;;;;;;9.32;94.15;94210.25;4967172;29;20237;-82
2023/01/15 02:13:09;;;;;;;0.40;0.40;;;;;;;9.49;93.52;94204.97;4949773;28;20193;-82
2023/01/15 02:15:46;;;;;;;0.40;0.40;;;;;;;9.28;95.06;94209.00;4951946;28;20173;-82
2023/01/15 02:18:18;;;;;;;0.27;0.27;;;;;;;9.30;94.91;94209.63;4968337;28;20186;-82
2023/01/15 02:20:47;;;;;;;0.40;0.40;;;;;;;9.48;94.26;94200.75;4934093;28;20191;-81
2023/01/15 02:23:31;;;;;;;0.20;0.20;;;;;;;9.35;94.36;94199.53;4922670;29;20214;-81
2023/01/15 02:26:17;;;;;;;0.30;0.30;;;;;;;9.61;93.72;94190.59;4943036;29;20186;-81
2023/01/15 02:28:45;;;;;;;0.43;0.40;;;;;;;9.47;94.41;94197.38;4925818;29;20214;-81
2023/01/15 02:31:30;;;;;;;0.30;0.30;;;;;;;9.58;94.06;94201.31;4934417;29;20285;-81
2023/01/15 02:34:12;;;;;;;0.30;0.30;;;;;;;9.62;94.36;94199.97;4933239;29;20178;-81
2023/01/15 02:36:41;;;;;;;0.30;0.30;;;;;;;9.57;94.75;94202.31;4909278;29;20194;-81
2023/01/15 02:39:09;;;;;;;0.30;0.30;;;;;;;9.62;94.51;94194.81;4927039;29;20243;-80
2023/01/15 02:41:38;;;;;;;0.20;0.20;;;;;;;9.57;94.81;94194.53;4918357;29;20273;-81
2023/01/15 02:44:05;;;;;;;0.40;0.40;;;;;;;9.44;95.31;94181.34;4923311;29;20198;-81
2023/01/15 02:46:33;;;;;;;0.30;0.30;;;;;;;9.59;95.23;94184.78;4927296;29;20206;-81
2023/01/15 02:48:59;;;;;;;0.30;0.20;;;;;;;9.68;94.31;94175.16;4932335;29;20238;-81
2023/01/15 02:51:29;;;;;;;0.20;0.20;;;;;;;9.50;96.20;94180.66;4919312;29;20187;-81
2023/01/15 02:53:58;;;;;;;1.07;0.30;;;;;;;9.64;95.20;94169.53;4924684;29;20188;-81
2023/01/15 02:56:26;;;;;;;0.20;0.20;;;;;;;9.45;95.96;94173.38;4932654;29;20241;-81
2023/01/15 02:58:56;;;;;;;1.17;0.30;;;;;;;9.60;95.44;94163.06;4916613;29;20754;-81
2023/01/15 03:01:28;;;;;;;0.33;0.33;;;;;;;9.65;94.97;94161.59;4937714;29;20210;-81
2023/01/15 03:03:58;;;;;;;0.50;0.30;;;;;;;9.64;95.13;94172.13;4927603;29;20333;-78
2023/01/15 03:06:37;;;;;;;0.73;0.30;;;;;;;9.62;95.33;94156.72;4917120;29;20197;-81
2023/01/15 03:09:03;;;;;;;0.40;0.30;;;;;;;9.62;95.11;94145.56;4933228;29;20275;-82
2023/01/15 03:11:31;;;;;;;0.47;0.30;;;;;;;9.49;95.71;94125.44;4942509;29;20190;-82
2023/01/15 03:14:02;;;;;;;0.20;0.20;;;;;;;9.56;94.90;94143.69;4917440;29;20266;-81
2023/01/15 03:16:33;;;;;;;0.47;0.30;;;;;;;9.68;94.50;94144.88;4917547;29;20186;-81
2023/01/15 03:19:05;;;;;;;0.20;0.20;;;;;;;9.79;93.61;94138.44;4923491;29;20301;-79
2023/01/15 03:21:49;;;;;;;0.20;0.20;;;;;;;9.78;93.73;94135.03;4920761;29;20193;-80
2023/01/15 03:24:20;;;;;;;0.20;0.20;;;;;;;9.61;94.35;94138.75;4933252;29;20545;-82
2023/01/15 03:26:45;;;;;;;0.10;0.10;;;;;;;9.65;93.73;94120.13;4931444;29;20200;-82
2023/01/15 03:29:13;;;;;;;0.20;0.20;;;;;;;9.83;92.93;94145.69;4927970;29;20213;-81
2023/01/15 03:31:38;;;;;;;0.30;0.30;;;;;;;9.70;93.61;94132.53;4930256;29;20193;-81
2023/01/15 03:34:05;;;;;;;0.20;0.20;;;;;;;9.77;92.91;94146.41;4918555;29;20269;-81
2023/01/15 03:36:31;;;;;;;0.30;0.30;;;;;;;9.72;92.96;94128.00;4923199;29;20186;-82
2023/01/15 03:38:57;;;;;;;0.20;0.20;;;;;;;9.65;93.04;94147.81;4928208;29;20237;-79
2023/01/15 03:41:37;;;;;;;0.30;0.30;;;;;;;9.74;92.71;94138.97;4946798;29;20253;-79
2023/01/15 03:44:23;;;;;;;1.07;0.20;;;;;;;9.70;92.54;94148.06;4941721;29;20210;-80
2023/01/15 03:47:09;;;;;;;0.27;0.27;;;;;;;9.82;92.24;94143.28;4935081;29;20276;-80
2023/01/15 03:49:46;;;;;;;0.23;0.23;;;;;;;9.89;92.02;94137.22;4913531;29;20679;-80
2023/01/15 03:53:03;;;;;;;0.30;0.30;;;;;;;9.94;92.45;94137.47;4920593;29;20560;-80
2023/01/15 03:55:42;;;;;;;0.60;0.30;;;;;;;9.77;93.23;94143.81;4929477;28;20247;-80
2023/01/15 03:58:19;;;;;;;0.30;0.20;;;;;;;9.85;92.74;94146.31;4918880;29;20220;-81
2023/01/15 04:00:50;;;;;;;0.70;0.20;;;;;;;9.91;92.13;94130.06;4931672;29;20255;-80
2023/01/15 04:03:16;;;;;;;0.23;0.23;;;;;;;9.82;92.56;94140.69;4932794;29;20204;-80
2023/01/15 04:05:42;;;;;;;0.10;0.10;;;;;;;9.77;92.71;94137.81;4937856;29;20204;-80
2023/01/15 04:08:07;;;;;;;0.87;0.30;;;;;;;9.80;92.42;94143.44;4934796;29;20562;-81
2023/01/15 04:10:33;;;;;;;0.30;0.30;;;;;;;9.80;91.50;94135.66;4929667;29;20208;-80
2023/01/15 04:12:58;;;;;;;0.40;0.40;;;;;;;9.98;90.82;94139.72;4924343;29;20198;-80
2023/01/15 04:15:23;;;;;;;1.07;0.30;;;;;;;9.98;90.77;94134.53;4920188;29;20190;-80
2023/01/15 04:17:49;;;;;;;0.80;0.30;;;;;;;9.98;90.55;94135.31;4920275;29;20190;-80
2023/01/15 04:20:14;;;;;;;0.43;0.20;;;;;;;9.82;90.88;94138.91;4932709;29;20229;-80
2023/01/15 04:22:39;;;;;;;0.30;0.30;;;;;;;9.84;91.28;94149.09;4937436;29;20212;-80
2023/01/15 04:25:05;;;;;;;0.30;0.30;;;;;;;9.78;90.39;94142.00;4919140;29;20205;-80
2023/01/15 04:27:31;;;;;;;0.20;0.20;;;;;;;9.88;89.85;94140.78;4928165;29;20200;-80
2023/01/15 04:29:56;;;;;;;0.30;0.30;;;;;;;9.77;89.71;94140.41;4937314;29;20312;-80
2023/01/15 04:32:22;;;;;;;0.20;0.20;;;;;;;9.88;88.98;94129.59;4934845;29;20183;-81
2023/01/15 04:34:47;;;;;;;0.30;0.30;;;;;;;9.94;88.89;94150.44;4923665;29;20190;-80
2023/01/15 04:37:13;;;;;;;0.30;0.30;;;;;;;9.92;88.24;94152.41;4930055;29;20185;-80
2023/01/15 04:39:38;;;;;;;0.30;0.30;;;;;;;9.98;88.53;94170.81;4951821;28;20357;-81
2023/01/15 04:44:47;;;;;;;0.30;0.30;;;;;;;9.19;97.47;94215.22;4964380;28;20226;-81
2023/01/15 04:47:13;;;;;;;0.20;0.20;;;;;;;8.94;99.54;94219.72;4955786;28;20199;-81
2023/01/15 04:49:38;;;;;;;0.23;0.23;;;;;;;8.83;99.37;94227.03;4920548;29;20229;-81
2023/01/15 04:52:04;;;;;;;0.30;0.30;;;;;;;8.50;99.82;94234.94;4924785;29;20195;-80
2023/01/15 04:54:29;;;;;;;0.20;0.20;;;;;;;8.15;98.05;94239.53;4930076;29;20198;-80
2023/01/15 04:56:54;;;;;;;0.20;0.20;;;;;;;7.93;97.04;94264.25;4934351;29;20204;-80
2023/01/15 04:59:25;;;;;;;0.20;0.20;;;;;;;7.70;97.45;94270.25;4932045;29;20218;-80
2023/01/15 05:01:50;;;;;;;0.20;0.20;;;;;;;7.38;97.09;94277.00;4933643;29;20194;-80
2023/01/15 05:04:16;;;;;;;0.20;0.20;;;;;;;7.63;95.91;94291.56;4935412;29;20311;-80
2023/01/15 05:06:41;;;;;;;0.70;0.23;;;;;;;7.41;95.77;94297.31;4933586;29;20186;-80
2023/01/15 05:09:06;;;;;;;0.20;0.20;;;;;;;7.35;96.10;94305.72;4918290;29;20218;-79
2023/01/15 05:11:36;;;;;;;0.20;0.20;;;;;;;7.33;95.62;94310.22;4923066;29;20198;-80
2023/01/15 05:14:02;;;;;;;0.20;0.20;;;;;;;7.19;96.08;94319.41;4933814;29;20181;-80
2023/01/15 05:16:28;;;;;;;0.20;0.20;;;;;;;7.16;96.97;94313.75;4924880;29;20189;-80
2023/01/15 05:18:57;;;;;;;0.20;0.20;;;;;;;7.16;95.74;94319.72;4928099;29;20218;-80
2023/01/15 05:21:25;;;;;;;0.30;0.30;;;;;;;7.12;95.18;94322.75;4924141;29;20281;-80
2023/01/15 05:23:52;;;;;;;1.17;0.30;;;;;;;7.08;94.49;94319.69;4929219;29;20237;-80
2023/01/15 05:26:18;;;;;;;0.20;0.20;;;;;;;6.98;94.06;94309.50;4933953;29;20233;-79
2023/01/15 05:28:44;;;;;;;0.20;0.20;;;;;;;6.99;94.80;94313.69;4917516;29;20657;-80
2023/01/15 05:31:12;;;;;;;0.20;0.20;;;;;;;6.93;94.96;94316.06;4918073;29;20290;-80
2023/01/15 05:33:38;;;;;;;0.20;0.20;;;;;;;6.99;95.78;94315.47;4917465;29;20559;-80
2023/01/15 05:36:05;;;;;;;0.20;0.20;;;;;;;6.80;95.81;94313.91;4933700;29;20186;-80
2023/01/15 05:38:30;;;;;;;0.20;0.20;;;;;;;6.82;95.89;94314.59;4947979;29;20249;-80
2023/01/15 05:40:55;;;;;;;0.30;0.30;;;;;;;6.72;96.12;94311.31;4933265;29;20222;-80
2023/01/15 05:43:21;;;;;;;0.23;0.20;;;;;;;6.70;96.54;94323.53;4928410;29;20214;-80
2023/01/15 05:45:46;;;;;;;0.40;0.40;;;;;;;6.64;96.25;94319.81;4921818;29;20221;-80
2023/01/15 05:48:11;;;;;;;0.67;0.40;;;;;;;6.63;96.53;94319.97;4918913;29;20226;-80
2023/01/15 05:50:37;;;;;;;0.30;0.30;;;;;;;6.50;97.43;94316.03;4936563;29;20666;-80
2023/01/15 05:53:02;;;;;;;0.43;0.30;;;;;;;6.55;97.24;94304.47;4925975;29;20189;-81
2023/01/15 05:55:27;;;;;;;0.20;0.20;;;;;;;6.60;96.73;94309.94;4931388;29;20244;-80
2023/01/15 05:57:52;;;;;;;0.20;0.20;;;;;;;6.40;98.00;94302.44;4933598;29;20182;-80
2023/01/15 06:00:18;;;;;;;0.30;0.30;;;;;;;6.38;97.69;94314.69;4928616;29;20720;-81
2023/01/15 06:02:47;;;;;;;0.40;0.40;;;;;;;6.20;98.60;94301.84;4916659;29;20301;-81
2023/01/15 06:05:13;;;;;;;0.20;0.20;;;;;;;6.38;98.00;94322.41;4932858;29;20190;-80
2023/01/15 06:07:38;;;;;;;0.30;0.30;;;;;;;6.24;98.43;94321.19;4936501;29;20182;-81
2023/01/15 06:10:04;;;;;;;0.30;0.30;;;;;;;6.28;98.08;94328.63;4927472;29;20757;-80
2023/01/15 06:12:31;;;;;;;0.30;0.30;;;;;;;6.16;97.31;94320.31;4931666;29;20193;-82
2023/01/15 06:14:56;;;;;;;0.30;0.30;;;;;;;6.22;96.81;94328.25;4938396;29;20190;-82
2023/01/15 06:17:21;;;;;;;0.30;0.30;;;;;;;6.20;96.07;94326.81;4924442;29;20187;-82
2023/01/15 06:19:47;;;;;;;0.20;0.20;;;;;;;6.16;97.62;94328.03;4927932;29;20222;-82
2023/01/15 06:22:12;;;;;;;0.30;0.30;;;;;;;6.10;98.49;94344.13;4935977;29;20199;-81
2023/01/15 06:24:37;;;;;;;0.43;0.43;;;;;;;6.01;98.13;94358.72;4919621;29;20202;-82
2023/01/15 06:27:03;;;;;;;0.30;0.30;;;;;;;6.10;97.32;94369.91;4917325;29;20229;-82
2023/01/15 06:29:28;;;;;;;0.30;0.30;;;;;;;5.92;97.29;94369.91;4925741;29;20234;-81
2023/01/15 06:31:53;;;;;;;0.37;0.37;;;;;;;5.84;97.48;94375.78;4918448;29;20671;-82
2023/01/15 06:34:19;;;;;;;0.40;0.40;;;;;;;5.83;97.29;94373.31;4944399;29;20190;-82
2023/01/15 06:36:44;;;;;;;0.40;0.40;;;;;;;5.78;96.68;94370.38;4942221;29;20190;-81
2023/01/15 06:39:09;;;;;;;0.30;0.30;;;;;;;5.77;96.59;94381.66;4943454;29;20821;-82
2023/01/15 06:47:21;;;;;;;0.20;0.20;;;;;;;5.50;95.95;94385.09;4933820;29;20269;-82
2023/01/15 06:49:47;;;;;;;1.27;0.30;;;;;;;5.37;96.63;94393.94;4918864;29;20583;-81
2023/01/15 06:52:13;;;;;;;1.57;0.30;;;;;;;5.49;95.91;94401.50;4924655;29;20571;-80
2023/01/15 06:54:38;;;;;;;0.20;0.20;;;;;;;5.30;96.41;94416.09;4929104;29;20201;-80
2023/01/15 06:57:03;;;;;;;1.03;0.20;;;;;;;5.19;96.19;94410.31;4933135;29;20231;-80
2023/01/15 06:59:29;;;;;;;0.20;0.20;;;;;;;5.09;96.21;94413.72;4932556;29;20230;-80
2023/01/15 07:01:55;;;;;;;0.67;0.27;;;;;;;5.11;95.99;94434.16;4910634;29;20190;-79
2023/01/15 07:04:20;;;;;;;0.30;0.30;;;;;;;5.09;96.15;94429.16;4931279;29;20222;-80
2023/01/15 07:06:45;;;;;;;0.20;0.20;;;;;;;5.22;95.30;94428.88;4917837;29;20581;-80
2023/01/15 07:09:11;;;;;;;1.43;1.33;;;;;;;5.07;95.93;94412.25;4939960;29;20210;-79
2023/01/15 07:11:48;;;;;;;0.40;0.40;;;;;;;4.90;97.08;94411.25;4920552;29;20206;-80
2023/01/15 07:14:16;;;;;;;1.67;1.57;;;;;;;4.90;97.14;94413.00;4929858;29;20189;-80
2023/01/15 07:16:42;;;;;;;0.97;0.70;;;;;;;4.88;96.74;94420.06;4943541;29;20196;-80
2023/01/15 07:19:08;;;;;;;1.63;1.30;;;;;;;4.90;97.33;94407.84;4939187;29;20213;-80
2023/01/15 07:21:33;;;;;;;2.93;2.73;;;;;;;4.73;98.24;94417.91;4918084;29;20194;-81
2023/01/15 07:23:59;;;;;;;1.10;1.10;;;;;;;4.89;97.98;94431.97;4936560;29;20212;-80
2023/01/15 07:26:25;;;;;;;0.80;0.80;;;;;;;4.83;98.73;94431.56;4925927;29;20658;-80
2023/01/15 07:28:50;;;;;;;0.90;0.90;;;;;;;4.88;98.10;94422.63;4930568;29;20213;-80
2023/01/15 07:31:15;;;;;;;2.57;2.30;;;;;;;4.84;98.71;94435.75;4948548;28;20197;-81
2023/01/15 07:33:41;;;;;;;6.97;5.50;;;;;;;4.94;98.37;94443.44;4922718;29;20194;-81
2023/01/15 07:36:06;;;;;;;3.10;2.80;;;;;;;5.07;97.80;94432.84;4925217;29;20734;-81
2023/01/15 07:38:32;;;;;;;0.73;0.60;;;;;;;4.65;98.18;94430.66;4930483;29;20260;-83
2023/01/15 07:51:54;;;;;;;0.80;0.80;;;;;;;4.55;99.03;94448.69;4924428;29;20226;-81
2023/01/15 07:54:19;;;;;;;0.60;0.60;;;;;;;4.60;99.15;94471.44;4944325;29;20575;-81
2023/01/15 07:56:45;;;;;;;0.60;0.40;;;;;;;4.51;97.01;94455.06;4932652;29;20224;-82
2023/01/15 07:59:10;;;;;;;0.40;0.40;;;;;;;4.66;96.41;94457.19;4917782;29;20236;-82
2023/01/15 08:01:35;;;;;;;0.80;0.60;;;;;;;4.76;95.93;94451.06;4929117;29;20194;-83
2023/01/15 08:04:01;;;;;;;0.47;0.47;;;;;;;4.71;96.21;94460.97;4915107;29;20245;-82
2023/01/15 08:06:26;;;;;;;0.60;0.50;;;;;;;4.68;96.29;94474.13;4948247;29;20212;-82
2023/01/15 08:08:51;;;;;;;1.63;0.30;;;;;;;4.59;96.49;94477.50;4927000;29;20205;-83
2023/01/15 08:16:45;;;;;;;1.40;1.30;;;;;;;4.36;97.27;94459.00;4936603;29;20275;-82
2023/01/15 08:19:10;;;;;;;1.43;1.33;;;;;;;4.46;96.57;94454.66;4941108;29;20239;-82
2023/01/15 08:21:35;;;;;;;0.70;0.70;;;;;;;4.32;96.35;94461.97;4918453;29;20193;-82
2023/01/15 08:24:01;;;;;;;1.00;1.00;;;;;;;4.47;95.81;94468.31;4920278;29;20715;-82
2023/01/15 08:26:26;;;;;;;0.93;0.93;;;;;;;4.23;96.37;94484.94;4917792;29;20431;-82
2023/01/15 08:28:52;;;;;;;0.40;0.40;;;;;;;4.41;95.90;94492.78;4924720;29;20227;-82
2023/01/15 08:31:17;;;;;;;0.50;0.40;;;;;;;4.21;96.54;94494.56;4922789;29;20194;-82
2023/01/15 08:33:42;;;;;;;1.33;0.53;;;;;;;4.18;96.72;94501.72;4927641;29;20189;-82
2023/01/15 08:36:08;;;;;;;0.50;0.50;;;;;;;4.18;96.01;94499.97;4953825;28;20175;-82
2023/01/15 08:38:33;;;;;;;0.90;0.90;;;;;;;4.05;95.69;94494.28;4949565;28;20225;-82
2023/01/15 08:40:58;;;;;;;0.90;0.80;;;;;;;4.30;96.04;94499.84;4921718;29;20182;-82
2023/01/15 08:43:25;;;;;;;1.70;1.20;;;;;;;4.15;96.32;94504.56;4931417;29;20796;-83
2023/01/15 08:45:51;;;;;;;3.70;1.90;;;;;;;4.10;95.94;94502.41;4926161;29;20185;-82
2023/01/15 08:48:16;;;;;;;4.57;2.60;;;;;;;4.18;95.66;94514.59;4923704;29;20904;-82
2023/01/15 08:50:42;;;;;;;10.93;5.97;;;;;;;4.21;95.63;94520.25;4925772;29;20241;-82
2023/01/15 08:53:07;;;;;;;18.37;8.50;;;;;;;4.18;96.33;94530.81;4946800;29;20178;-82
2023/01/15 08:55:32;;;;;;;8.77;5.17;;;;;;;4.22;95.89;94526.19;4930872;29;20241;-82
2023/01/15 08:57:58;;;;;;;5.53;3.20;;;;;;;4.31;95.49;94525.41;4947605;29;20222;-82
2023/01/15 09:00:23;;;;;;;2.97;1.80;;;;;;;4.28;96.15;94555.72;4928535;29;20221;-82
2023/01/15 09:02:49;;;;;;;1.93;1.47;;;;;;;3.95;96.14;94570.50;4908194;29;20296;-83
2023/01/15 09:05:14;;;;;;;4.33;2.63;;;;;;;4.22;96.29;94573.28;4919856;29;20569;-83
2023/01/15 09:07:39;;;;;;;3.13;2.33;;;;;;;4.33;95.62;94571.53;4936315;29;20190;-82
2023/01/15 09:10:05;;;;;;;1.73;1.60;;;;;;;4.03;96.66;94580.94;4929615;29;20206;-82
2023/01/15 09:12:31;;;;;;;3.67;1.90;;;;;;;4.30;94.98;94574.38;4919111;29;20292;-82
2023/01/15 09:14:56;;;;;;;6.30;3.80;;;;;;;4.38;94.96;94570.19;4935078;29;20198;-82
2023/01/15 09:17:22;;;;;;;3.43;2.67;;;;;;;4.17;96.22;94584.91;4943807;29;20201;-82
2023/01/15 09:19:47;;;;;;;8.13;5.77;;;;;;;4.09;95.93;94598.41;4932885;29;20217;-81
2023/01/15 09:22:12;;;;;;;14.07;8.07;;;;;;;4.14;95.63;94616.00;4952282;29;20197;-82
2023/01/15 09:24:37;;;;;;;8.97;6.17;;;;;;;4.21;96.29;94617.09;4931453;29;20224;-82
2023/01/15 09:27:03;;;;;;;15.00;10.63;;;;;;;4.18;95.65;94632.78;4942225;29;20631;-82
2023/01/15 09:29:28;;;;;;;3.87;3.50;;;;;;;4.15;94.99;94617.59;4921084;29;20269;-81
2023/01/15 09:31:53;;;;;;;4.43;3.23;;;;;;;4.11;94.76;94614.50;4937487;29;20217;-82
2023/01/15 09:34:19;;;;;;;7.13;5.50;;;;;;;4.08;93.92;94617.34;4942511;29;20179;-82
2023/01/15 09:36:45;;;;;;;6.43;3.83;;;;;;;4.03;94.51;94624.63;4931520;29;20672;-82
2023/01/15 09:39:11;;;;;;;2.47;2.10;;;;;;;3.99;94.51;94633.53;4946100;29;20204;-81
2023/01/15 09:42:11;;;;;;;3.40;2.73;;;;;;;4.15;93.95;94644.16;4924179;29;20191;-82
2023/01/15 09:45:11;;;;;;;1.60;1.50;;;;;;;4.14;94.15;94657.09;4938421;29;20290;-82
2023/01/15 09:47:56;;;;;;;1.60;1.50;;;;;;;4.28;93.92;94648.22;4920878;29;20178;-82
2023/01/15 09:50:25;;;;;;;0.57;0.57;;;;;;;4.10;93.74;94650.59;4925933;29;20204;-82
2023/01/15 09:53:24;;;;;;;0.73;0.73;;;;;;;3.78;92.74;94655.88;4929571;29;20178;-82
2023/01/15 09:55:51;;;;;;;0.77;0.77;;;;;;;3.98;93.18;94667.88;4948962;29;20208;-82
2023/01/15 09:58:19;;;;;;;1.20;1.10;;;;;;;3.97;92.80;94668.78;4935502;29;20614;-82
2023/01/15 10:00:47;;;;;;;0.70;0.70;;;;;;;3.80;93.23;94677.94;4936294;29;20274;-82
2023/01/15 10:03:40;;;;;;;0.90;0.90;;;;;;;3.93;92.91;94673.38;4937273;29;20257;-82
2023/01/15 10:06:14;;;;;;;0.87;0.50;;;;;;;3.92;93.21;94686.38;4920117;29;20216;-85
2023/01/15 10:08:44;;;;;;;0.50;0.50;;;;;;;3.92;93.31;94678.66;4930585;29;20249;-86
2023/01/15 10:11:13;;;;;;;0.47;0.47;;;;;;;3.97;92.54;94677.31;4923848;29;20183;-88
2023/01/15 10:13:43;;;;;;;0.40;0.40;;;;;;;3.93;93.17;94675.16;4931389;29;20188;-84
2023/01/15 10:16:09;;;;;;;0.40;0.40;;;;;;;3.81;93.01;94682.13;4941944;29;20210;-85
2023/01/15 10:18:35;;;;;;;0.50;0.50;;;;;;;3.88;92.46;94700.38;4929373;29;20202;-84
2023/01/15 10:21:12;;;;;;;0.70;0.70;;;;;;;3.82;92.69;94708.63;4927523;29;20197;-84
2023/01/15 10:24:04;;;;;;;0.33;0.33;;;;;;;3.63;92.27;94725.56;4944408;29;20327;-84
2023/01/15 10:26:34;;;;;;;0.70;0.50;;;;;;;3.59;92.78;94731.84;4945347;29;20193;-84
2023/01/15 10:29:06;;;;;;;0.40;0.40;;;;;;;3.37;92.35;94729.41;4932939;29;20765;-83
2023/01/15 10:31:47;;;;;;;0.43;0.43;;;;;;;3.44;92.06;94716.88;4924905;29;20215;-83
2023/01/15 10:34:50;;;;;;;0.80;0.80;;;;;;;3.27;91.79;94719.09;4943989;29;20185;-83
2023/01/15 10:37:22;;;;;;;0.80;0.80;;;;;;;3.10;92.31;94733.25;4940445;29;20206;-82
2023/01/15 10:40:09;;;;;;;0.60;0.60;;;;;;;2.60;92.65;94724.41;4920869;29;20208;-84
2023/01/15 10:42:53;;;;;;;4.10;3.63;;;;;;;2.74;92.90;94726.72;4913157;29;20195;-85
2023/01/15 10:45:22;;;;;;;0.93;0.90;;;;;;;2.53;94.23;94715.56;4925752;29;20607;-83
2023/01/15 10:47:51;;;;;;;0.97;0.73;;;;;;;2.66;93.38;94723.94;4948110;29;20214;-83
2023/01/15 10:50:23;;;;;;;0.67;0.67;;;;;;;2.60;93.58;94744.91;4922089;29;20293;-84
2023/01/15 10:53:06;;;;;;;1.30;1.20;;;;;;;2.50;94.11;94747.38;4928117;29;20554;-83
2023/01/15 10:55:39;;;;;;;0.87;0.87;;;;;;;2.48;94.57;94741.56;4940211;29;20666;-83
2023/01/15 10:58:27;;;;;;;2.20;2.10;;;;;;;2.38;93.98;94725.25;4935540;29;20182;-84
2023/01/15 11:00:57;;;;;;;3.53;3.13;;;;;;;2.42;94.02;94730.97;4938575;29;20613;-82
2023/01/15 11:03:31;;;;;;;2.50;2.30;;;;;;;2.53;94.27;94733.50;4936324;29;20209;-84
2023/01/15 11:05:57;;;;;;;3.87;3.57;;;;;;;2.42;94.01;94726.66;4916531;29;20659;-84
2023/01/15 11:08:27;;;;;;;1.00;1.00;;;;;;;2.30;94.72;94747.25;4929456;29;20201;-83
2023/01/15 11:10:53;;;;;;;0.90;0.90;;;;;;;2.10;94.97;94756.47;4929809;29;20179;-82
2023/01/15 11:21:51;;;;;;;0.87;0.67;;;;;;;1.98;95.12;94759.00;4924366;29;20552;-81
2023/01/15 11:24:17;;;;;;;3.17;0.80;;;;;;;1.95;95.11;94753.31;4936050;29;20213;-82
2023/01/15 11:26:49;;;;;;;2.43;1.40;;;;;;;2.07;94.96;94754.13;4909909;29;20183;-82
2023/01/15 11:29:26;;;;;;;1.13;1.00;;;;;;;2.03;94.46;94760.41;4936869;29;20246;-83
2023/01/15 11:31:51;;;;;;;2.97;2.37;;;;;;;2.14;94.60;94752.75;4918262;29;20277;-82
2023/01/15 11:34:20;;;;;;;4.50;2.13;;;;;;;2.06;93.95;94757.63;4925370;29;20220;-83
2023/01/15 11:36:46;;;;;;;0.53;0.53;;;;;;;2.10;93.52;94756.47;4922361;29;20186;-82
2023/01/15 11:39:29;;;;;;;0.90;0.70;;;;;;;2.33;92.95;94758.09;4921638;29;20736;-82
2023/01/15 11:50:43;;;;;;;0.77;0.57;;;;;;;2.07;93.45;94759.25;4927407;29;21006;-82
2023/01/15 11:53:16;;;;;;;1.57;0.80;;;;;;;2.28;93.04;94750.75;4916520;29;20188;-83
2023/01/15 11:55:50;;;;;;;3.27;0.93;;;;;;;2.32;92.26;94747.97;4901593;29;20265;-83
2023/01/15 11:58:15;;;;;;;2.27;1.00;;;;;;;2.21;91.90;94746.25;4946586;29;20182;-83
2023/01/15 12:00:43;;;;;;;2.80;0.70;;;;;;;1.94;93.87;94747.38;4934235;29;20264;-83
2023/01/15 12:03:15;;;;;;;1.30;1.00;;;;;;;2.28;92.99;94747.38;4931590;29;20766;-83
2023/01/15 12:05:46;;;;;;;2.13;1.00;;;;;;;2.58;91.92;94736.53;4934838;29;20265;-83
2023/01/15 12:08:25;;;;;;;1.63;1.30;;;;;;;2.49;91.89;94752.63;4939611;29;20762;-84
2023/01/15 12:11:04;;;;;;;2.50;1.57;;;;;;;2.38;92.78;94748.31;4931584;29;20190;-84
2023/01/15 12:14:00;;;;;;;2.37;1.30;;;;;;;2.50;92.56;94744.00;4941912;29;20273;-83
2023/01/15 12:16:54;;;;;;;5.87;2.30;;;;;;;2.42;92.71;94734.34;4939443;29;20186;-82
2023/01/15 12:19:29;;;;;;;1.53;0.97;;;;;;;2.38;91.89;94724.44;4935618;29;20225;-83
2023/01/15 12:22:04;;;;;;;3.97;0.97;;;;;;;2.32;91.90;94714.66;4934322;29;20213;-83
2023/01/15 12:24:45;;;;;;;3.07;1.50;;;;;;;2.51;90.88;94736.19;4948639;29;20209;-84
2023/01/15 12:27:29;;;;;;;2.10;1.30;;;;;;;2.84;90.21;94722.50;4942501;29;20212;-83
2023/01/15 12:30:02;;;;;;;3.20;1.23;;;;;;;2.55;89.43;94714.50;4898778;29;1026682;-84
2023/01/15 12:32:35;;;;;;;3.53;1.30;;;;;;;2.84;89.79;94714.00;4926003;29;20327;-83
2023/01/15 12:35:05;;;;;;;3.37;1.70;;;;;;;2.91;88.33;94717.69;4928965;29;20194;-85
2023/01/15 12:37:38;;;;;;;3.13;2.10;;;;;;;2.74;87.51;94718.19;4932117;29;20201;-83